Time;durP1;ratioP1;P1;durP2;ratioP2;P2;SDS_P1;SDS_P2;PMS_P1;PMS_P2;Temp;Humidity;BMP_temperature;BMP_pressure;BME280_temperature;BME280_humidity;BME280_pressure;Samples;Min_cycle;Max_cycle;Signal;HPM_P1;HPM_P2
2021/07/12 00:01:40;;;;;;;9.30;6.22;;;;;;;14.51;92.71;93313.20;1831440;77;21505;-77
2021/07/12 00:04:06;;;;;;;6.35;5.75;;;;;;;14.49;92.61;93316.18;1830394;76;21029;-77
2021/07/12 00:06:32;;;;;;;6.85;5.67;;;;;;;14.45;92.89;93322.33;1814018;77;21247;-77
2021/07/12 00:09:00;;;;;;;8.35;5.50;;;;;;;14.43;92.67;93323.33;1845837;76;20998;-77
2021/07/12 00:11:28;;;;;;;6.95;6.25;;;;;;;14.36;92.97;93322.87;1801499;77;21418;-77
2021/07/12 00:13:55;;;;;;;7.03;5.87;;;;;;;14.32;93.17;93315.33;1836423;77;21485;-76
2021/07/12 00:16:23;;;;;;;7.53;6.33;;;;;;;14.32;93.70;93318.83;1824803;76;21598;-77
2021/07/12 00:18:49;;;;;;;7.10;5.83;;;;;;;14.32;93.34;93323.53;1814987;77;21282;-76
2021/07/12 00:21:17;;;;;;;12.03;7.00;;;;;;;14.34;93.08;93325.27;1843568;77;21440;-77
2021/07/12 00:23:44;;;;;;;7.15;6.45;;;;;;;14.36;92.96;93323.47;1802459;79;21033;-76
2021/07/12 00:26:12;;;;;;;9.88;8.35;;;;;;;14.32;93.15;93319.44;1801320;79;21066;-76
2021/07/12 00:28:39;;;;;;;11.33;7.28;;;;;;;14.30;93.49;93323.97;1820540;78;21093;-76
2021/07/12 00:31:07;;;;;;;12.37;8.58;;;;;;;14.32;93.66;93321.56;1837501;76;21003;-78
2021/07/12 00:33:34;;;;;;;11.80;7.72;;;;;;;14.31;93.52;93322.77;1840938;76;21588;-76
2021/07/12 00:36:03;;;;;;;8.73;7.22;;;;;;;14.30;93.44;93319.09;1801208;79;21068;-78
2021/07/12 00:38:31;;;;;;;8.38;5.62;;;;;;;14.29;93.02;93328.47;1771956;79;21117;-76
2021/07/12 00:40:59;;;;;;;7.10;5.58;;;;;;;14.22;92.14;93327.27;1780626;78;21062;-77
2021/07/12 00:43:27;;;;;;;6.10;5.50;;;;;;;14.13;91.89;93322.94;1752602;80;21465;-77
2021/07/12 00:45:53;;;;;;;6.20;5.40;;;;;;;13.97;92.02;93326.36;1764128;78;21052;-76
2021/07/12 00:48:20;;;;;;;5.62;5.12;;;;;;;13.75;93.50;93328.70;1820715;78;21039;-76
2021/07/12 00:50:48;;;;;;;8.43;5.83;;;;;;;13.55;94.57;93324.56;1761050;81;21148;-77
2021/07/12 00:53:14;;;;;;;5.72;5.08;;;;;;;13.45;95.50;93325.50;1761490;80;21664;-76
2021/07/12 00:55:48;;;;;;;6.05;5.03;;;;;;;13.39;96.17;93334.77;1741648;81;20992;-77
2021/07/12 00:58:20;;;;;;;11.50;5.80;;;;;;;13.38;95.88;93329.11;1761580;81;21079;-76
2021/07/12 01:00:49;;;;;;;6.47;5.60;;;;;;;13.46;95.76;93328.41;1733192;81;21188;-78
2021/07/12 01:03:16;;;;;;;5.85;5.35;;;;;;;13.53;95.51;93337.25;1720896;82;21808;-76
2021/07/12 01:05:43;;;;;;;5.35;4.72;;;;;;;13.59;95.26;93333.47;1746554;81;21088;-77
2021/07/12 01:08:10;;;;;;;5.92;5.03;;;;;;;13.57;95.04;93335.83;1746362;80;21108;-76
2021/07/12 01:10:41;;;;;;;6.95;5.92;;;;;;;13.48;94.96;93335.00;1783230;78;21051;-78
2021/07/12 01:13:33;;;;;;;6.08;4.80;;;;;;;13.37;95.24;93334.40;1804763;78;21082;-80
2021/07/12 01:16:21;;;;;;;5.95;5.08;;;;;;;13.28;95.65;93336.90;1761131;80;21122;-79
2021/07/12 01:19:18;;;;;;;6.95;4.92;;;;;;;13.23;96.46;93340.84;1761995;80;21687;-76
2021/07/12 01:21:52;;;;;;;6.67;5.05;;;;;;;13.24;95.92;93344.34;1763328;80;21038;-76
2021/07/12 01:24:31;;;;;;;9.38;5.53;;;;;;;13.30;95.72;93341.34;1802661;79;21520;-76
2021/07/12 01:27:14;;;;;;;12.30;5.55;;;;;;;13.36;95.55;93337.73;1833402;78;21017;-77
2021/07/12 01:30:05;;;;;;;6.55;5.70;;;;;;;13.46;95.40;93344.78;1843278;77;21064;-78
2021/07/12 01:32:55;;;;;;;8.03;5.75;;;;;;;13.51;95.14;93339.64;1825185;77;21582;-76
2021/07/12 01:36:24;;;;;;;6.05;5.40;;;;;;;13.53;95.05;93338.61;1789832;79;20934;-77
2021/07/12 01:39:03;;;;;;;8.83;5.75;;;;;;;13.59;94.86;93333.47;1837756;77;20944;-77
2021/07/12 01:41:57;;;;;;;7.12;5.25;;;;;;;13.59;94.22;93339.70;1775813;79;21014;-77
2021/07/12 01:44:54;;;;;;;5.70;5.00;;;;;;;13.49;94.37;93336.53;1774215;78;21440;-75
2021/07/12 01:47:57;;;;;;;6.95;5.45;;;;;;;13.49;94.47;93339.27;1804188;79;20982;-78
2021/07/12 01:50:35;;;;;;;8.35;5.33;;;;;;;13.47;94.40;93333.47;1799671;78;21036;-77
2021/07/12 01:53:37;;;;;;;5.75;5.25;;;;;;;13.41;94.84;93333.75;1803426;77;21017;-78
2021/07/12 01:56:13;;;;;;;8.80;5.92;;;;;;;13.42;94.94;93337.25;1791543;78;21685;-77
2021/07/12 01:59:02;;;;;;;7.92;6.00;;;;;;;13.44;94.44;93332.16;1767540;81;21778;-77
2021/07/12 02:01:30;;;;;;;8.50;5.47;;;;;;;13.41;94.48;93333.75;1791263;78;20982;-77
2021/07/12 02:04:01;;;;;;;7.40;5.70;;;;;;;13.41;94.45;93336.48;1783482;79;21104;-76
2021/07/12 02:06:27;;;;;;;8.38;6.92;;;;;;;13.37;94.07;93338.50;1801621;79;20997;-79
2021/07/12 02:08:54;;;;;;;10.55;7.78;;;;;;;13.31;93.95;93340.14;1802249;79;21022;-79
2021/07/12 02:11:22;;;;;;;10.85;7.85;;;;;;;13.25;94.07;93340.45;1803565;79;22122;-76
2021/07/12 02:13:52;;;;;;;10.93;7.78;;;;;;;13.22;94.34;93337.91;1803111;78;21007;-77
2021/07/12 02:16:21;;;;;;;8.28;6.30;;;;;;;13.24;94.34;93336.16;1801357;78;21482;-77
2021/07/12 02:18:49;;;;;;;7.08;5.30;;;;;;;13.24;94.31;93337.52;1800085;78;21397;-77
2021/07/12 02:21:21;;;;;;;9.95;5.90;;;;;;;13.25;94.39;93339.85;1795886;79;21068;-77
2021/07/12 02:23:48;;;;;;;7.45;5.90;;;;;;;13.22;94.42;93339.87;1774587;80;21624;-78
2021/07/12 02:26:15;;;;;;;7.50;5.58;;;;;;;13.25;94.54;93338.48;1777708;78;20945;-77
2021/07/12 02:28:44;;;;;;;5.75;5.25;;;;;;;13.23;94.26;93333.22;1834856;77;21073;-76
2021/07/12 02:31:12;;;;;;;8.25;4.83;;;;;;;13.23;94.44;93331.86;1759467;78;21057;-79
2021/07/12 02:33:41;;;;;;;6.12;5.03;;;;;;;13.19;94.08;93329.18;1795639;78;21007;-78
2021/07/12 02:36:08;;;;;;;6.53;5.30;;;;;;;13.04;94.16;93334.08;1802304;79;21466;-77
2021/07/12 02:38:38;;;;;;;5.83;5.25;;;;;;;12.98;95.10;93331.65;1799245;79;21498;-76
2021/07/12 02:41:06;;;;;;;8.10;5.67;;;;;;;13.00;95.27;93342.14;1796492;78;21112;-76
2021/07/12 02:43:34;;;;;;;7.70;6.30;;;;;;;12.98;94.68;93337.70;1798767;79;21026;-77
2021/07/12 02:46:00;;;;;;;8.53;6.42;;;;;;;12.95;94.42;93337.16;1768317;79;21592;-79
2021/07/12 02:48:29;;;;;;;13.43;8.00;;;;;;;12.90;94.29;93337.03;1799783;78;21122;-78
2021/07/12 02:50:56;;;;;;;10.13;6.95;;;;;;;12.88;94.26;93338.02;1800710;79;21389;-78
2021/07/12 02:53:26;;;;;;;6.62;5.92;;;;;;;12.91;94.21;93338.58;1800886;79;20994;-76
2021/07/12 02:55:53;;;;;;;9.95;6.53;;;;;;;12.94;94.07;93339.13;1774470;79;21031;-78
2021/07/12 02:58:20;;;;;;;6.78;6.08;;;;;;;12.95;93.81;93335.80;1795471;79;21019;-78
2021/07/12 03:00:47;;;;;;;7.47;5.50;;;;;;;12.97;93.60;93335.55;1801875;78;21134;-75
2021/07/12 03:03:15;;;;;;;7.67;6.10;;;;;;;12.99;93.64;93335.91;1811023;78;21006;-78
2021/07/12 03:05:42;;;;;;;7.87;5.00;;;;;;;13.01;93.32;93333.56;1809654;78;21267;-76
2021/07/12 03:08:20;;;;;;;5.97;4.92;;;;;;;12.98;93.42;93334.38;1796931;79;21520;-78
2021/07/12 03:10:53;;;;;;;5.60;5.03;;;;;;;12.98;93.45;93343.16;1795006;78;21604;-77
2021/07/12 03:13:35;;;;;;;5.75;5.15;;;;;;;13.01;93.63;93344.48;1779606;79;21087;-76
2021/07/12 03:16:03;;;;;;;6.97;5.80;;;;;;;13.00;93.55;93339.41;1802352;78;21077;-76
2021/07/12 03:18:31;;;;;;;10.38;6.00;;;;;;;12.94;93.87;93347.87;1801391;78;21362;-76
2021/07/12 03:21:02;;;;;;;8.18;6.15;;;;;;;12.90;93.61;93345.22;1800619;79;21034;-77
2021/07/12 03:23:31;;;;;;;9.23;6.62;;;;;;;12.85;93.46;93353.25;1797627;79;21504;-76
2021/07/12 03:25:59;;;;;;;11.68;6.60;;;;;;;12.82;93.68;93344.52;1771874;79;21466;-77
2021/07/12 03:28:26;;;;;;;8.58;6.70;;;;;;;12.80;93.65;93348.27;1797848;78;21116;-77
2021/07/12 03:30:53;;;;;;;10.25;6.45;;;;;;;12.83;93.43;93348.05;1803658;79;21556;-75
2021/07/12 03:33:22;;;;;;;9.08;5.10;;;;;;;12.84;93.41;93344.12;1797362;79;21038;-77
2021/07/12 03:35:52;;;;;;;5.85;5.08;;;;;;;12.85;93.22;93343.70;1793237;79;21046;-77
2021/07/12 03:38:21;;;;;;;5.45;4.95;;;;;;;12.82;93.45;93344.52;1774609;79;21945;-75
2021/07/12 03:40:48;;;;;;;7.15;5.28;;;;;;;12.80;93.89;93344.17;1801790;78;21520;-78
2021/07/12 03:45:44;;;;;;;9.58;5.97;;;;;;;12.65;94.82;93341.45;1823378;78;21017;-78
2021/07/12 03:48:10;;;;;;;7.87;6.12;;;;;;;12.57;95.43;93348.19;1806901;79;21554;-77
2021/07/12 03:50:39;;;;;;;7.97;5.92;;;;;;;12.60;95.66;93347.37;1805117;77;21430;-77
2021/07/12 03:53:05;;;;;;;8.70;6.25;;;;;;;12.61;95.26;93344.82;1815318;78;21068;-78
2021/07/12 03:55:32;;;;;;;12.65;6.62;;;;;;;12.62;95.29;93343.63;1820194;78;21132;-77
2021/07/12 03:57:59;;;;;;;10.30;7.00;;;;;;;12.63;95.48;93332.30;1750145;81;21524;-76
2021/07/12 04:00:28;;;;;;;5.92;5.33;;;;;;;12.74;95.95;93334.13;1813029;77;21524;-77
2021/07/12 04:02:54;;;;;;;6.45;5.12;;;;;;;12.89;95.84;93337.60;1789053;78;22042;-79
2021/07/12 04:05:24;;;;;;;6.12;5.58;;;;;;;13.03;95.64;93333.91;1790881;79;21057;-76
2021/07/12 04:07:55;;;;;;;5.37;4.90;;;;;;;13.18;95.17;93330.97;1815048;78;21053;-76
2021/07/12 04:12:51;;;;;;;6.15;5.37;;;;;;;13.38;94.44;93331.84;1809374;79;21037;-76
2021/07/12 04:15:18;;;;;;;8.88;6.30;;;;;;;13.57;94.32;93324.90;1800925;78;21558;-75
2021/07/12 04:17:44;;;;;;;6.60;5.87;;;;;;;13.73;93.33;93324.27;1808345;77;21232;-77
2021/07/12 04:20:12;;;;;;;7.33;6.62;;;;;;;13.85;92.39;93324.42;1784189;78;21230;-77
2021/07/12 04:22:39;;;;;;;9.45;6.05;;;;;;;14.00;91.85;93322.80;1841438;77;20990;-78
2021/07/12 04:25:07;;;;;;;6.80;5.97;;;;;;;14.12;91.25;93326.88;1840993;77;21627;-78
2021/07/12 04:27:34;;;;;;;6.75;5.28;;;;;;;14.27;91.42;93323.44;1761584;77;21090;-77
2021/07/12 04:30:00;;;;;;;5.90;5.35;;;;;;;14.54;90.89;93322.55;1789544;78;21515;-76
2021/07/12 04:32:27;;;;;;;8.53;5.42;;;;;;;14.93;89.97;93311.35;1790268;78;22093;-76
2021/07/12 04:34:55;;;;;;;6.08;5.28;;;;;;;15.34;88.59;93319.62;1743617;78;21205;-78
2021/07/12 04:37:21;;;;;;;6.33;5.08;;;;;;;15.57;87.18;93323.58;1812123;78;21179;-76
2021/07/12 04:39:48;;;;;;;5.95;5.35;;;;;;;15.68;85.05;93318.63;1748660;79;21113;-79
2021/07/12 04:42:20;;;;;;;6.17;5.12;;;;;;;15.77;83.93;93321.52;1805458;77;21040;-77
2021/07/12 04:44:47;;;;;;;6.03;5.40;;;;;;;15.88;82.44;93318.52;1771670;78;21010;-78
2021/07/12 04:47:14;;;;;;;5.58;5.08;;;;;;;15.97;81.35;93313.77;1759549;80;21963;-78
2021/07/12 04:49:40;;;;;;;7.53;5.22;;;;;;;16.07;80.92;93318.22;1793395;79;21094;-78
2021/07/12 04:52:07;;;;;;;7.80;5.50;;;;;;;16.15;80.47;93310.56;1817794;78;21092;-80
2021/07/12 04:54:33;;;;;;;6.17;5.00;;;;;;;16.17;80.31;93309.52;1803651;78;21022;-80
2021/07/12 04:57:00;;;;;;;5.55;5.05;;;;;;;16.15;79.94;93311.34;1764393;80;21301;-79
2021/07/12 04:59:28;;;;;;;6.22;5.37;;;;;;;16.13;80.48;93312.36;1788973;77;21013;-78
2021/07/12 05:01:55;;;;;;;6.62;5.25;;;;;;;16.20;80.52;93312.16;1818284;77;21080;-78
2021/07/12 05:04:23;;;;;;;7.55;6.67;;;;;;;16.25;81.15;93308.14;1811379;77;21077;-78
2021/07/12 05:06:50;;;;;;;6.65;5.97;;;;;;;16.31;81.82;93309.14;1734465;78;21064;-77
2021/07/12 05:09:17;;;;;;;8.03;6.40;;;;;;;16.37;81.67;93305.27;1796698;78;20994;-79
2021/07/12 05:11:43;;;;;;;7.45;5.10;;;;;;;16.44;81.42;93309.19;1822989;76;21002;-77
2021/07/12 05:14:09;;;;;;;6.80;6.10;;;;;;;16.51;81.45;93308.39;1787239;79;21383;-77
2021/07/12 05:16:36;;;;;;;9.60;6.83;;;;;;;16.64;81.44;93303.52;1748042;80;21381;-77
2021/07/12 05:19:03;;;;;;;7.95;6.85;;;;;;;16.93;81.51;93305.62;1811091;78;21605;-77
2021/07/12 05:21:30;;;;;;;6.45;5.85;;;;;;;17.31;81.44;93310.36;1769412;78;21299;-77
2021/07/12 05:23:58;;;;;;;6.10;5.50;;;;;;;17.69;80.95;93305.42;1765963;80;21026;-77
2021/07/12 05:26:24;;;;;;;8.53;6.47;;;;;;;18.05;79.78;93304.24;1774452;78;21099;-77
2021/07/12 05:31:19;;;;;;;10.35;5.87;;;;;;;18.85;75.69;93304.56;1732584;81;21090;-78
2021/07/12 05:33:45;;;;;;;7.97;5.40;;;;;;;19.35;73.99;93295.74;1805583;77;21076;-78
2021/07/12 05:36:12;;;;;;;7.08;5.80;;;;;;;19.85;71.94;93294.36;1783903;78;20999;-74
2021/07/12 05:38:38;;;;;;;6.28;5.67;;;;;;;20.39;70.53;93294.27;1765078;78;21017;-77
2021/07/12 05:41:06;;;;;;;5.83;5.33;;;;;;;20.93;68.03;93291.91;1809802;77;21809;-78
2021/07/12 05:43:33;;;;;;;8.50;5.92;;;;;;;21.19;66.20;93293.67;1739192;80;21093;-79
2021/07/12 05:45:59;;;;;;;8.98;6.12;;;;;;;21.28;65.36;93297.16;1782579;79;21071;-77
2021/07/12 05:48:25;;;;;;;6.25;5.47;;;;;;;21.23;64.45;93302.57;1793314;78;21569;-79
2021/07/12 05:50:52;;;;;;;6.60;5.37;;;;;;;21.05;65.05;93299.23;1782472;76;21064;-80
2021/07/12 05:53:19;;;;;;;6.35;5.75;;;;;;;20.94;64.52;93296.95;1821913;76;21606;-77
2021/07/12 05:55:45;;;;;;;7.40;5.67;;;;;;;20.82;64.81;93296.53;1776028;77;21109;-76
2021/07/12 05:58:11;;;;;;;6.83;5.40;;;;;;;20.71;64.37;93296.24;1774827;79;21084;-76
2021/07/12 06:00:38;;;;;;;5.95;5.35;;;;;;;20.63;64.70;93290.27;1757994;78;21121;-77
2021/07/12 06:03:04;;;;;;;5.70;5.20;;;;;;;20.72;64.99;93291.63;1791134;78;21077;-77
2021/07/12 06:05:34;;;;;;;11.05;6.03;;;;;;;20.98;64.13;93294.03;1801174;78;21502;-76
2021/07/12 06:08:07;;;;;;;6.58;5.55;;;;;;;21.40;63.70;93279.47;1796169;78;21066;-77
2021/07/12 06:10:34;;;;;;;9.63;8.43;;;;;;;21.93;63.04;93289.34;1810837;77;21079;-78
2021/07/12 06:13:00;;;;;;;9.33;7.72;;;;;;;22.37;61.33;93279.66;1817178;77;21033;-77
2021/07/12 06:15:28;;;;;;;11.03;7.00;;;;;;;22.59;60.05;93280.72;1764450;79;21045;-78
2021/07/12 06:17:58;;;;;;;7.08;6.47;;;;;;;22.67;59.13;93284.64;1754268;79;21109;-75
2021/07/12 06:20:24;;;;;;;6.70;5.58;;;;;;;22.66;59.24;93279.72;1759615;78;21104;-76
2021/07/12 06:22:53;;;;;;;5.90;5.03;;;;;;;22.66;58.79;93278.95;1818949;78;21079;-76
2021/07/12 06:25:20;;;;;;;5.60;5.10;;;;;;;22.68;58.80;93279.23;1771294;78;21256;-78
2021/07/12 06:27:48;;;;;;;6.67;5.15;;;;;;;22.69;58.59;93274.61;1792207;77;21037;-77
2021/07/12 06:30:17;;;;;;;6.50;5.90;;;;;;;22.62;58.28;93273.60;1773586;78;21104;-76
2021/07/12 06:32:44;;;;;;;8.25;6.17;;;;;;;22.52;58.58;93269.38;1778487;78;21069;-78
2021/07/12 06:37:45;;;;;;;5.78;5.17;;;;;;;22.43;59.14;93263.30;1864762;75;22040;-77
2021/07/12 06:40:19;;;;;;;5.08;4.67;;;;;;;22.37;58.77;93260.28;1746851;77;21082;-76
2021/07/12 06:42:48;;;;;;;5.35;4.85;;;;;;;22.35;58.74;93260.77;1778090;78;21053;-76
2021/07/12 06:45:20;;;;;;;5.75;4.62;;;;;;;22.35;59.01;93261.38;1752585;79;21120;-76
2021/07/12 06:47:50;;;;;;;6.30;5.70;;;;;;;22.29;58.98;93256.48;1742861;80;21267;-77
2021/07/12 06:50:25;;;;;;;6.05;5.37;;;;;;;22.27;58.99;93263.13;1765092;79;20977;-77
2021/07/12 06:53:01;;;;;;;6.37;5.78;;;;;;;22.28;58.18;93256.34;1793847;77;21111;-75
2021/07/12 06:55:30;;;;;;;6.12;5.53;;;;;;;22.29;59.47;93257.11;1845055;76;21136;-77
2021/07/12 06:57:57;;;;;;;6.33;5.65;;;;;;;22.36;59.09;93259.52;1793158;76;21057;-76
2021/07/12 07:00:29;;;;;;;5.70;5.17;;;;;;;22.46;60.20;93253.28;1801556;78;21527;-78
2021/07/12 07:03:11;;;;;;;;;;;;;;;22.57;59.04;93252.70;1802555;77;21102;-76
2021/07/12 07:05:36;;;;;;;6.92;6.22;;;;;;;22.71;60.02;93258.88;1808236;76;20158;-77
2021/07/12 07:08:09;;;;;;;9.58;8.65;;;;;;;22.78;59.19;93250.19;1815081;76;21080;-77
2021/07/12 07:10:44;;;;;;;8.13;7.37;;;;;;;22.80;58.67;93253.27;1816787;76;21358;-77
2021/07/12 07:13:14;;;;;;;7.42;6.53;;;;;;;22.73;59.10;93248.86;1810480;77;21139;-77
2021/07/12 07:15:44;;;;;;;7.92;6.58;;;;;;;22.71;59.24;93256.88;1824339;76;21109;-77
2021/07/12 07:18:11;;;;;;;16.77;9.10;;;;;;;22.69;59.52;93256.59;1827814;76;21062;-76
2021/07/12 07:20:39;;;;;;;9.35;8.43;;;;;;;22.71;59.78;93255.48;1801701;77;21144;-75
2021/07/12 07:23:09;;;;;;;7.95;7.15;;;;;;;22.75;59.88;93253.31;1781904;77;20994;-76
2021/07/12 07:25:38;;;;;;;7.42;6.37;;;;;;;22.79;59.45;93248.94;1798558;78;21066;-77
2021/07/12 07:28:05;;;;;;;8.30;6.92;;;;;;;22.83;59.07;93246.77;1743460;79;21115;-75
2021/07/12 07:30:35;;;;;;;6.45;5.85;;;;;;;22.90;58.50;93251.14;1768009;79;21574;-76
2021/07/12 07:33:06;;;;;;;7.58;6.00;;;;;;;22.96;57.28;93248.64;1766657;78;21159;-77
2021/07/12 07:35:37;;;;;;;9.03;6.65;;;;;;;23.05;57.58;93249.16;1772319;78;21645;-76
2021/07/12 07:38:04;;;;;;;12.50;7.15;;;;;;;23.15;57.15;93237.34;1739287;80;21714;-76
2021/07/12 07:40:30;;;;;;;6.70;5.83;;;;;;;23.30;56.47;93235.94;1812969;78;21111;-77
2021/07/12 07:42:58;;;;;;;6.47;5.28;;;;;;;23.42;56.42;93239.77;1819287;77;21033;-76
2021/07/12 07:45:25;;;;;;;6.08;4.90;;;;;;;23.50;56.29;93236.73;1832474;76;22651;-76
2021/07/12 07:47:59;;;;;;;6.97;5.35;;;;;;;23.62;56.19;93239.06;1831195;75;21179;-77
2021/07/12 07:50:29;;;;;;;5.90;5.03;;;;;;;23.73;56.08;93239.84;1839396;76;21581;-78
2021/07/12 07:52:56;;;;;;;8.05;5.58;;;;;;;23.82;54.94;93224.47;1782922;77;21072;-77
2021/07/12 07:55:25;;;;;;;6.03;5.42;;;;;;;23.93;54.99;93229.41;1824217;76;21062;-79
2021/07/12 07:58:00;;;;;;;9.98;6.85;;;;;;;24.03;54.44;93227.23;1819107;77;22281;-75
2021/07/12 08:00:32;;;;;;;6.50;5.75;;;;;;;24.09;54.08;93224.67;1813248;77;21158;-78
2021/07/12 08:03:11;;;;;;;7.65;6.95;;;;;;;24.10;53.47;93224.80;1777843;77;21096;-78
2021/07/12 08:05:41;;;;;;;;;;;;;;;24.02;53.21;93218.14;1821348;77;20990;-77
2021/07/12 08:08:16;;;;;;;10.00;8.33;;;;;;;23.90;52.53;93222.03;1839818;76;20207;-78
2021/07/12 08:10:47;;;;;;;11.55;6.75;;;;;;;23.81;53.45;93217.39;1806935;76;21002;-77
2021/07/12 08:13:16;;;;;;;6.62;5.97;;;;;;;23.79;54.37;93217.10;1795786;76;21492;-75
2021/07/12 08:15:52;;;;;;;7.65;6.00;;;;;;;23.79;55.12;93215.71;1827804;76;21013;-76
2021/07/12 08:18:22;;;;;;;8.88;6.80;;;;;;;23.80;54.70;93216.47;1786139;77;21606;-74
2021/07/12 08:20:50;;;;;;;5.72;5.20;;;;;;;23.83;54.20;93214.88;1830751;77;21271;-77
2021/07/12 08:23:26;;;;;;;6.83;5.55;;;;;;;23.88;55.64;93215.59;1836594;77;21126;-76
2021/07/12 08:25:53;;;;;;;5.37;4.87;;;;;;;23.95;55.04;93213.77;1789282;77;20984;-77
2021/07/12 08:28:19;;;;;;;5.62;5.12;;;;;;;24.02;54.54;93208.42;1787129;78;21054;-77
2021/07/12 08:30:47;;;;;;;5.12;4.72;;;;;;;24.07;53.62;93211.13;1804283;76;21084;-78
2021/07/12 08:33:18;;;;;;;5.37;4.92;;;;;;;24.13;53.01;93205.02;1851817;76;21065;-77
2021/07/12 08:35:45;;;;;;;6.30;4.78;;;;;;;24.18;53.77;93208.47;1803055;77;21615;-78
2021/07/12 08:38:13;;;;;;;7.35;6.62;;;;;;;24.22;53.93;93209.81;1849144;76;21749;-77
2021/07/12 08:40:41;;;;;;;10.50;8.40;;;;;;;24.23;53.40;93208.55;1852017;76;21096;-76
2021/07/12 08:43:09;;;;;;;9.48;8.00;;;;;;;24.22;52.48;93213.98;1817760;76;21019;-76
2021/07/12 08:45:38;;;;;;;7.22;6.53;;;;;;;24.21;51.88;93215.83;1759705;79;21517;-76
2021/07/12 08:48:05;;;;;;;6.78;6.00;;;;;;;24.16;52.55;93213.14;1733607;77;21172;-76
2021/07/12 08:50:33;;;;;;;8.08;4.75;;;;;;;24.11;52.85;93213.84;1816545;77;21070;-76
2021/07/12 08:53:01;;;;;;;4.50;4.20;;;;;;;24.08;51.12;93215.45;1819946;77;21511;-76
2021/07/12 08:55:28;;;;;;;7.53;4.92;;;;;;;24.02;51.20;93215.36;1803660;77;21102;-77
2021/07/12 08:58:10;;;;;;;7.53;5.20;;;;;;;23.96;50.71;93211.14;1748726;79;21162;-77
2021/07/12 09:00:40;;;;;;;5.72;5.05;;;;;;;23.89;50.08;93210.17;1765757;78;21710;-78
2021/07/12 09:03:36;;;;;;;5.15;4.75;;;;;;;23.82;49.46;93213.98;1770179;77;21058;-77
2021/07/12 09:06:13;;;;;;;9.83;5.90;;;;;;;23.77;49.76;93218.83;1677528;82;21686;-75
2021/07/12 09:08:54;;;;;;;11.57;5.30;;;;;;;23.68;50.39;93209.39;1758591;79;21615;-75
2021/07/12 09:11:36;;;;;;;9.13;5.92;;;;;;;23.62;51.50;93218.84;1792001;77;21105;-75
2021/07/12 09:14:09;;;;;;;6.95;6.25;;;;;;;23.57;52.18;93218.16;1783753;78;21276;-76
2021/07/12 09:16:54;;;;;;;6.97;5.10;;;;;;;23.49;55.55;93222.72;1782477;79;21045;-76
2021/07/12 09:19:35;;;;;;;6.10;5.22;;;;;;;23.39;57.42;93222.70;1796184;77;21505;-76
2021/07/12 09:22:13;;;;;;;5.78;5.25;;;;;;;23.24;58.25;93220.58;1798125;77;21827;-76
2021/07/12 09:24:53;;;;;;;6.97;5.15;;;;;;;23.06;59.89;93224.36;1832974;76;21586;-75
2021/07/12 09:27:19;;;;;;;6.50;5.87;;;;;;;22.95;58.69;93223.56;1811727;77;21175;-75
2021/07/12 09:29:53;;;;;;;10.93;7.65;;;;;;;22.93;59.10;93219.09;1821333;77;21046;-76
2021/07/12 09:32:30;;;;;;;6.28;5.37;;;;;;;22.99;60.48;93228.28;1824729;77;21578;-76
2021/07/12 09:35:06;;;;;;;9.95;6.30;;;;;;;23.11;60.38;93220.91;1820127;77;21167;-76
2021/07/12 09:37:37;;;;;;;6.80;5.92;;;;;;;23.25;56.64;93232.59;1819682;77;21360;-77
2021/07/12 09:40:12;;;;;;;5.75;5.25;;;;;;;23.39;56.38;93229.63;1828361;77;22353;-75
2021/07/12 09:42:45;;;;;;;6.08;5.25;;;;;;;23.47;54.97;93228.01;1825110;77;21156;-76
2021/07/12 09:45:12;;;;;;;7.35;6.20;;;;;;;23.52;53.92;93227.94;1815657;77;21056;-77
2021/07/12 09:47:44;;;;;;;10.18;9.10;;;;;;;23.55;54.40;93226.22;1793570;78;20991;-76
2021/07/12 09:50:19;;;;;;;9.83;7.67;;;;;;;23.56;53.83;93226.35;1817769;77;21053;-76
2021/07/12 09:53:00;;;;;;;6.05;5.28;;;;;;;23.55;56.34;93215.88;1820704;77;21443;-77
2021/07/12 09:55:35;;;;;;;8.25;6.47;;;;;;;23.53;56.11;93220.38;1824515;77;21077;-77
2021/07/12 09:58:13;;;;;;;12.10;8.58;;;;;;;23.50;56.40;93217.31;1826288;77;21109;-77
2021/07/12 10:01:06;;;;;;;9.75;6.87;;;;;;;23.48;54.55;93222.59;1777150;79;21793;-77
2021/07/12 10:03:35;;;;;;;7.83;6.62;;;;;;;23.51;56.41;93217.47;1732603;80;21156;-75
2021/07/12 10:06:02;;;;;;;11.95;6.55;;;;;;;23.55;56.59;93206.80;1752516;80;22243;-75
2021/07/12 10:08:36;;;;;;;8.03;6.25;;;;;;;23.58;56.59;93205.80;1733002;80;21011;-78
2021/07/12 10:11:10;;;;;;;9.18;5.37;;;;;;;23.61;56.68;93204.84;1742879;79;21135;-77
2021/07/12 10:13:57;;;;;;;;;;;;;;;;;;;;;
2021/07/12 10:16:17;;;;;;;6.90;5.55;;;;;;;23.66;59.55;93200.80;1732050;80;21091;-77
2021/07/12 10:18:47;;;;;;;8.58;6.55;;;;;;;23.75;59.48;93194.34;1760035;79;21230;-77
2021/07/12 10:21:13;;;;;;;6.67;5.37;;;;;;;23.89;63.70;93194.14;1757369;79;21050;-76
2021/07/12 10:23:42;;;;;;;9.30;5.87;;;;;;;24.07;61.32;93193.06;1713905;79;21011;-77
2021/07/12 10:26:11;;;;;;;9.53;6.40;;;;;;;24.24;60.45;93193.41;1728637;81;21086;-76
2021/07/12 10:28:40;;;;;;;7.50;5.65;;;;;;;24.36;59.60;93192.89;1739150;80;21161;-76
2021/07/12 10:46:11;;;;;;;6.87;5.70;;;;;;;24.70;45.47;93187.05;1755559;81;20921;-74
2021/07/12 10:48:42;;;;;;;6.37;5.67;;;;;;;24.64;45.28;93189.04;1758925;79;21589;-75
2021/07/12 10:51:19;;;;;;;6.05;5.45;;;;;;;24.58;46.99;93187.45;1731796;81;21075;-75
2021/07/12 10:54:08;;;;;;;5.40;4.80;;;;;;;24.51;47.19;93190.03;1732941;81;21046;-75
2021/07/12 10:56:57;;;;;;;7.28;5.28;;;;;;;24.46;45.53;93190.12;1807013;77;21586;-76
2021/07/12 10:59:50;;;;;;;6.80;6.15;;;;;;;24.45;47.55;93185.06;1831090;77;21098;-75
2021/07/12 11:02:58;;;;;;;6.62;5.20;;;;;;;24.47;47.83;93173.58;1820286;77;21057;-76
2021/07/12 11:05:27;;;;;;;6.22;5.55;;;;;;;24.50;48.92;93173.23;1801183;77;21018;-75
2021/07/12 11:07:57;;;;;;;9.35;6.95;;;;;;;24.53;48.69;93177.81;1780390;79;21025;-75
2021/07/12 11:10:28;;;;;;;9.25;6.30;;;;;;;24.53;50.21;93176.42;1772238;79;21537;-75
2021/07/12 11:13:03;;;;;;;6.70;4.90;;;;;;;24.50;50.66;93178.03;1807842;77;21053;-76
2021/07/12 11:15:36;;;;;;;5.72;5.12;;;;;;;24.46;48.37;93179.01;1748531;79;21016;-75
2021/07/12 11:18:27;;;;;;;6.03;5.17;;;;;;;24.44;47.00;93171.77;1721789;80;21292;-76
2021/07/12 11:21:14;;;;;;;5.85;5.25;;;;;;;24.46;47.12;93165.74;1820336;77;21062;-76
2021/07/12 11:26:33;;;;;;;7.10;5.62;;;;;;;24.45;48.83;93166.38;1732770;80;21135;-76
2021/07/12 11:29:19;;;;;;;8.18;5.95;;;;;;;24.42;48.31;93174.30;1794897;77;20969;-76
2021/07/12 11:32:05;;;;;;;7.58;5.78;;;;;;;24.37;49.53;93168.04;1787919;78;21313;-77
2021/07/12 11:34:48;;;;;;;10.18;6.37;;;;;;;24.32;49.58;93164.56;1782531;77;21144;-77
2021/07/12 11:37:21;;;;;;;6.80;6.17;;;;;;;24.26;50.36;93151.26;1785718;77;21068;-75
2021/07/12 11:40:00;;;;;;;7.92;6.53;;;;;;;24.32;52.64;93156.22;1792216;77;21094;-75
2021/07/12 11:42:37;;;;;;;7.60;6.22;;;;;;;24.42;52.38;93151.31;1756063;79;21062;-78
2021/07/12 11:45:15;;;;;;;7.03;6.42;;;;;;;24.57;50.28;93140.08;1778939;79;21076;-78
2021/07/12 11:47:53;;;;;;;6.45;5.70;;;;;;;24.71;50.29;93137.77;1789515;77;21029;-76
2021/07/12 11:50:32;;;;;;;7.37;6.67;;;;;;;24.87;48.03;93140.58;1769066;79;21076;-76
2021/07/12 11:53:07;;;;;;;6.05;5.55;;;;;;;24.98;49.89;93145.46;1785441;78;21176;-76
2021/07/12 11:55:41;;;;;;;6.45;5.85;;;;;;;25.07;48.53;93141.09;1792794;77;21500;-76
2021/07/12 11:58:11;;;;;;;6.83;6.15;;;;;;;25.16;49.11;93135.34;1805709;77;21524;-75
2021/07/12 12:00:43;;;;;;;10.60;5.85;;;;;;;25.24;47.70;93135.65;1789536;78;21062;-77
2021/07/12 12:03:29;;;;;;;7.72;5.92;;;;;;;25.27;48.36;93147.94;1786216;78;21105;-75
2021/07/12 12:08:34;;;;;;;6.30;5.70;;;;;;;25.35;45.68;93131.55;1813887;77;21079;-76
2021/07/12 12:11:00;;;;;;;6.20;5.20;;;;;;;25.40;47.42;93129.44;1790498;77;21003;-76
2021/07/12 12:13:29;;;;;;;6.17;5.58;;;;;;;25.42;46.31;93126.91;1810846;77;21084;-76
2021/07/12 12:15:59;;;;;;;6.50;5.40;;;;;;;25.46;45.03;93137.17;1803216;77;21049;-77
2021/07/12 12:18:30;;;;;;;6.35;5.72;;;;;;;25.44;45.38;93141.09;1820657;77;21138;-77
2021/07/12 12:21:01;;;;;;;5.95;5.25;;;;;;;25.37;45.35;93136.75;1819109;77;21443;-77
2021/07/12 12:23:36;;;;;;;11.33;6.03;;;;;;;25.27;45.85;93135.42;1824437;77;21037;-77
2021/07/12 12:26:13;;;;;;;6.60;5.40;;;;;;;25.15;47.07;93122.70;1814776;77;21508;-78